Atkinson, Maine
Current Conditions -  °F | °C
As of 6:53 PM on Wednesday 26 Nov 2014 (Local Time) from KBGR Reporting Station
Moderate Snow Moderate Snow  
Wind Chill: -5°   Ceiling: 500
Heat Index:   Visibility: 0.5mi
Dew Point: -1°   Wind: 10mph
Humidity: 96%   Direction: 10°N
Pressure: 30.04"   Gusts: NA
Location:  45.2129°N, 69.1615°W
Report Text: KBGR 262353Z 01009KT 1/2SM R15/4000V5000FT SN FG VV005 00/M01 A3004 RMK AO2 SLP175 4/005 P0011 60043 T00001006 10039 20000 56050
Loading
Personal Weather Stations






























Interactive Weather Map New forecast layout! Learn more

10-Day Weather Forecast

Advertisements
Track Severe Weather on mobile